Time;durP1;ratioP1;P1;durP2;ratioP2;P2;SDS_P1;SDS_P2;PMS_P1;PMS_P2;Temp;Humidity;BMP_temperature;BMP_pressure;BME280_temperature;BME280_humidity;BME280_pressure;Samples;Min_cycle;Max_cycle;Signal;HPM_P1;HPM_P2
2024/01/28 00:02:15;;;;;;;;;38.75;32.50;;;;;6.11;63.55;102588.25;5051084;28;45583;-64
2024/01/28 00:04:43;;;;;;;;;36.75;30.00;;;;;6.11;63.75;102585.66;5041961;28;46243;-64
2024/01/28 00:07:09;;;;;;;;;39.50;34.50;;;;;6.15;63.92;102590.22;5050598;28;46431;-63
2024/01/28 00:09:34;;;;;;;;;33.75;29.00;;;;;6.17;63.32;102595.50;5055612;28;45555;-63
2024/01/28 00:12:00;;;;;;;;;38.00;30.00;;;;;6.11;63.66;102564.84;5056221;28;45523;-62
2024/01/28 00:14:26;;;;;;;;;37.50;29.75;;;;;6.15;63.35;102565.91;5052995;28;46473;-63
2024/01/28 00:16:51;;;;;;;;;30.00;27.75;;;;;6.10;63.46;102552.66;5046206;28;45723;-63
2024/01/28 00:19:17;;;;;;;;;51.25;38.25;;;;;6.07;63.40;102557.69;5057940;28;45578;-63
2024/01/28 00:21:42;;;;;;;;;51.00;39.00;;;;;5.93;63.87;102538.81;5067713;28;45453;-62
2024/01/28 00:24:08;;;;;;;;;37.25;31.75;;;;;5.91;64.21;102535.22;5070089;28;46393;-63
2024/01/28 00:26:40;;;;;;;;;35.50;34.75;;;;;5.85;64.34;102528.81;5069457;28;45353;-64
2024/01/28 00:29:09;;;;;;;;;46.75;35.75;;;;;5.86;64.70;102528.91;5068863;28;45489;-64
2024/01/28 00:31:35;;;;;;;;;46.00;33.00;;;;;5.84;64.60;102527.06;5058182;28;45580;-63
2024/01/28 00:34:01;;;;;;;;;38.75;30.75;;;;;5.90;64.11;102527.34;5071633;28;46104;-60
2024/01/28 00:36:26;;;;;;;;;40.00;34.00;;;;;5.93;63.92;102524.88;5066219;28;45433;-65
2024/01/28 00:38:53;;;;;;;;;32.75;28.75;;;;;5.92;63.79;102521.38;5071205;28;45467;-63
2024/01/28 00:41:21;;;;;;;;;37.75;28.25;;;;;5.92;64.17;102526.59;5058553;28;45369;-64
2024/01/28 00:43:47;;;;;;;;;42.00;32.00;;;;;5.91;64.43;102534.34;5061744;28;45539;-63
2024/01/28 00:46:13;;;;;;;;;38.75;32.00;;;;;5.91;64.28;102545.63;5064327;28;46055;-64
2024/01/28 00:48:38;;;;;;;;;33.25;29.75;;;;;5.91;63.93;102529.13;5066893;28;45449;-64
2024/01/28 00:51:04;;;;;;;;;36.50;31.00;;;;;5.91;64.21;102532.63;5060137;28;45371;-62
2024/01/28 00:53:30;;;;;;;;;38.75;32.25;;;;;5.95;64.92;102536.28;5069781;28;45440;-63
2024/01/28 00:55:57;;;;;;;;;43.00;33.75;;;;;5.94;64.38;102525.00;5073599;28;46895;-63
2024/01/28 00:58:23;;;;;;;;;37.50;30.25;;;;;5.97;64.16;102524.25;5040410;28;45452;-67
2024/01/28 01:00:48;;;;;;;;;38.75;32.00;;;;;5.92;64.15;102516.19;5068391;28;45576;-64
2024/01/28 01:03:14;;;;;;;;;33.25;30.75;;;;;6.01;63.83;102518.41;5063183;28;45924;-63
2024/01/28 01:05:41;;;;;;;;;35.00;30.00;;;;;6.01;63.53;102512.31;5057779;28;45446;-62
2024/01/28 01:08:08;;;;;;;;;32.25;27.00;;;;;5.98;63.55;102514.75;5061102;28;45610;-63
2024/01/28 01:10:33;;;;;;;;;44.50;32.75;;;;;5.97;63.56;102510.38;5060443;28;45508;-64
2024/01/28 01:12:59;;;;;;;;;41.50;35.75;;;;;5.97;63.82;102518.16;5065827;28;46276;-63
2024/01/28 01:15:25;;;;;;;;;34.50;32.50;;;;;5.85;63.97;102508.91;5039630;28;45487;-62
2024/01/28 01:17:50;;;;;;;;;41.50;35.25;;;;;5.81;63.85;102508.66;5064879;28;45287;-63
2024/01/28 01:20:17;;;;;;;;;42.50;32.25;;;;;5.78;63.79;102505.94;5075859;28;45427;-61
2024/01/28 01:22:44;;;;;;;;;44.00;32.75;;;;;5.81;63.89;102509.56;5067153;28;47055;-62
2024/01/28 01:25:12;;;;;;;;;39.25;32.00;;;;;5.84;63.40;102509.72;5059829;28;45369;-63
2024/01/28 01:27:38;;;;;;;;;39.00;33.50;;;;;5.82;63.70;102510.47;5070068;28;45590;-61
2024/01/28 01:30:04;;;;;;;;;40.75;33.00;;;;;5.57;63.46;102461.56;5060167;28;45429;-63
2024/01/28 01:32:29;;;;;;;;;34.25;30.25;;;;;5.70;63.97;102497.75;5063220;28;46728;-62
2024/01/28 01:34:55;;;;;;;;;33.75;29.25;;;;;5.69;64.08;102495.94;5072093;28;45401;-62
2024/01/28 01:37:20;;;;;;;;;45.75;32.75;;;;;5.78;63.62;102496.41;5076316;28;45438;-62
2024/01/28 01:39:46;;;;;;;;;35.75;32.25;;;;;5.89;63.54;102499.56;5068406;28;45500;-63
2024/01/28 01:42:12;;;;;;;;;41.75;31.50;;;;;5.75;63.51;102459.88;5068316;28;45730;-63
2024/01/28 01:44:37;;;;;;;;;41.75;35.25;;;;;5.87;63.89;102485.59;5068848;28;45307;-63
2024/01/28 01:47:08;;;;;;;;;39.25;31.25;;;;;5.63;63.96;102454.06;5070164;28;45357;-62
2024/01/28 01:49:33;;;;;;;;;40.50;29.75;;;;;5.65;63.71;102458.53;5064706;28;45510;-64
2024/01/28 01:51:59;;;;;;;;;40.50;35.50;;;;;5.71;64.21;102476.13;5047608;28;46912;-62
2024/01/28 01:54:25;;;;;;;;;38.00;33.00;;;;;5.65;64.32;102471.53;5067072;28;45533;-63
2024/01/28 01:56:50;;;;;;;;;37.00;31.00;;;;;5.62;64.26;102465.25;5065139;28;45382;-64
2024/01/28 01:59:20;;;;;;;;;35.50;30.00;;;;;5.63;64.32;102480.06;5059404;28;45472;-64
2024/01/28 02:01:46;;;;;;;;;31.75;30.00;;;;;5.55;64.77;102461.47;5068503;28;45748;-63
2024/01/28 02:04:12;;;;;;;;;38.00;33.00;;;;;5.57;64.59;102471.94;5071296;28;45486;-66
2024/01/28 02:06:38;;;;;;;;;37.75;30.75;;;;;5.51;64.68;102462.16;5074481;28;45752;-66
2024/01/28 02:09:09;;;;;;;;;32.25;28.25;;;;;5.49;65.69;102468.97;5067729;28;45355;-67
2024/01/28 02:11:35;;;;;;;;;38.00;29.50;;;;;5.47;65.62;102462.78;5069117;28;45539;-63
2024/01/28 02:14:01;;;;;;;;;30.50;29.75;;;;;5.44;65.17;102452.25;5059895;28;45517;-66
2024/01/28 02:16:26;;;;;;;;;37.50;32.00;;;;;5.46;65.63;102463.63;5053267;28;45616;-65
2024/01/28 02:18:52;;;;;;;;;38.25;32.00;;;;;5.28;66.09;102458.38;5065227;28;45631;-65
2024/01/28 02:21:17;;;;;;;;;42.25;31.50;;;;;5.21;65.73;102448.47;5065652;28;46101;-64
2024/01/28 02:23:43;;;;;;;;;40.50;32.00;;;;;5.19;65.84;102451.00;5070457;28;45312;-63
2024/01/28 02:26:09;;;;;;;;;31.25;29.50;;;;;5.17;66.64;102452.59;5065318;28;45622;-64
2024/01/28 02:28:34;;;;;;;;;24.75;23.50;;;;;5.13;65.99;102457.59;5056437;28;45477;-64
2024/01/28 02:31:00;;;;;;;;;31.25;29.00;;;;;5.10;66.35;102450.50;5060196;28;46016;-64
2024/01/28 02:33:26;;;;;;;;;28.25;25.00;;;;;5.12;66.36;102446.28;5063705;28;45352;-63
2024/01/28 02:35:51;;;;;;;;;30.00;23.75;;;;;5.04;66.07;102447.63;5072948;28;45392;-63
2024/01/28 02:38:17;;;;;;;;;25.25;22.75;;;;;5.05;66.33;102447.72;5069132;28;45762;-64
2024/01/28 02:40:43;;;;;;;;;35.25;31.00;;;;;5.01;67.00;102443.16;5060723;28;47763;-65
2024/01/28 02:43:10;;;;;;;;;29.50;26.50;;;;;5.00;67.12;102437.88;5067091;28;45410;-64
2024/01/28 02:45:36;;;;;;;;;27.00;26.50;;;;;4.97;66.79;102437.72;5065124;28;45604;-65
2024/01/28 02:48:02;;;;;;;;;35.75;30.00;;;;;4.90;67.22;102420.94;5041445;28;45415;-64
2024/01/28 02:50:27;;;;;;;;;32.00;27.50;;;;;4.94;67.29;102434.97;5060063;28;45441;-64
2024/01/28 02:52:52;;;;;;;;;30.00;25.00;;;;;4.98;67.03;102426.50;5060401;28;45382;-63
2024/01/28 02:55:18;;;;;;;;;31.75;28.00;;;;;5.07;66.45;102432.19;5060652;28;45353;-65
2024/01/28 02:57:44;;;;;;;;;40.75;30.75;;;;;5.06;67.31;102430.41;5058880;28;46143;-64
2024/01/28 03:00:10;;;;;;;;;33.75;28.25;;;;;5.02;66.87;102420.66;5078801;28;46025;-64
2024/01/28 03:02:37;;;;;;;;;32.25;29.25;;;;;4.92;67.36;102419.31;5061392;28;45683;-65
2024/01/28 03:05:03;;;;;;;;;30.00;25.25;;;;;5.04;67.04;102424.25;5081136;28;45462;-64
2024/01/28 03:07:28;;;;;;;;;29.25;25.75;;;;;5.06;67.09;102423.50;5045741;28;45465;-64
2024/01/28 03:09:54;;;;;;;;;32.00;28.50;;;;;5.05;66.80;102408.75;5077709;28;46682;-64
2024/01/28 03:12:19;;;;;;;;;6.00;2.25;;;;;5.00;66.46;102397.22;5080279;28;45346;-64
2024/01/28 03:14:45;;;;;;;;;32.50;26.75;;;;;4.89;67.05;102393.19;5079542;28;45475;-64
2024/01/28 03:17:10;;;;;;;;;24.75;24.50;;;;;4.98;66.84;102406.63;5073997;28;45429;-63
2024/01/28 03:19:36;;;;;;;;;28.25;24.25;;;;;4.81;66.98;102386.69;5079530;28;46162;-64
2024/01/28 03:22:03;;;;;;;;;29.25;23.75;;;;;4.81;67.21;102397.06;5079359;28;45611;-64
2024/01/28 03:24:28;;;;;;;;;26.50;24.00;;;;;4.60;67.05;102364.03;5079239;28;45474;-62
2024/01/28 03:26:54;;;;;;;;;27.50;26.50;;;;;4.61;67.86;102376.16;5078987;28;45480;-63
2024/01/28 03:29:20;;;;;;;;;29.00;23.25;;;;;4.54;68.84;102387.03;5078968;28;46146;-64
2024/01/28 03:31:46;;;;;;;;;28.00;23.50;;;;;4.47;68.53;102380.63;5077358;28;45748;-63
2024/01/28 03:34:12;;;;;;;;;28.50;22.50;;;;;4.44;68.84;102374.41;5077944;28;45345;-65
2024/01/28 03:36:37;;;;;;;;;22.50;20.00;;;;;4.42;68.21;102373.41;5080049;28;45502;-64
2024/01/28 03:39:04;;;;;;;;;28.25;22.25;;;;;4.31;68.97;102378.00;5078727;28;45399;-67
2024/01/28 03:41:30;;;;;;;;;26.00;21.00;;;;;4.26;69.27;102374.28;5078739;28;45248;-64
2024/01/28 03:43:56;;;;;;;;;32.50;21.50;;;;;4.23;69.79;102376.72;5080350;28;45237;-63
2024/01/28 03:46:21;;;;;;;;;22.50;19.50;;;;;4.20;69.96;102377.47;5079719;28;45398;-64
2024/01/28 03:48:47;;;;;;;;;29.50;26.75;;;;;4.27;69.04;102377.75;5079314;28;45532;-64
2024/01/28 03:51:12;;;;;;;;;26.50;20.50;;;;;4.26;69.10;102371.69;5080136;28;45522;-65
2024/01/28 03:53:38;;;;;;;;;22.25;22.25;;;;;4.19;69.45;102372.19;5079443;28;45502;-64
2024/01/28 03:56:06;;;;;;;;;30.50;24.00;;;;;4.22;69.52;102375.84;5079282;28;45609;-67
2024/01/28 03:58:32;;;;;;;;;24.00;22.25;;;;;4.22;70.06;102369.72;5077334;28;46884;-66
2024/01/28 04:00:57;;;;;;;;;24.75;22.00;;;;;4.23;69.95;102374.13;5078294;28;45357;-64
2024/01/28 04:03:23;;;;;;;;;25.75;21.00;;;;;4.21;69.85;102368.84;5079119;28;45234;-65
2024/01/28 04:05:48;;;;;;;;;28.75;23.00;;;;;4.14;70.15;102358.97;5079694;28;45362;-66
2024/01/28 04:08:14;;;;;;;;;22.00;19.25;;;;;4.20;70.54;102367.09;5078357;28;46634;-63
2024/01/28 04:10:39;;;;;;;;;21.25;21.00;;;;;4.22;70.38;102364.56;5079258;28;45747;-64
2024/01/28 04:13:05;;;;;;;;;26.50;24.75;;;;;4.14;70.90;102358.97;5079917;28;45409;-63
2024/01/28 04:15:31;;;;;;;;;27.75;21.50;;;;;4.17;70.49;102363.41;5060394;28;45352;-64
2024/01/28 04:17:57;;;;;;;;;18.00;15.75;;;;;4.19;70.27;102349.72;5076679;28;46061;-63
2024/01/28 04:20:23;;;;;;;;;24.50;19.25;;;;;4.23;70.58;102354.28;5078271;28;45347;-64
2024/01/28 04:22:49;;;;;;;;;20.75;20.25;;;;;4.21;70.69;102349.81;5078163;28;45443;-64
2024/01/28 04:25:14;;;;;;;;;29.50;25.00;;;;;4.18;70.69;102347.94;5077025;28;45501;-64
2024/01/28 04:27:40;;;;;;;;;25.50;24.50;;;;;4.22;70.73;102344.72;5078208;28;45404;-64
2024/01/28 04:30:08;;;;;;;;;27.25;20.50;;;;;4.25;70.81;102333.63;5059955;28;46217;-65
2024/01/28 04:32:34;;;;;;;;;27.50;24.25;;;;;4.35;70.17;102337.59;5076764;28;45504;-63
2024/01/28 04:35:00;;;;;;;;;25.25;20.00;;;;;4.37;69.78;102339.44;5078546;28;45370;-64
2024/01/28 04:37:29;;;;;;;;;24.75;21.75;;;;;4.39;70.56;102348.22;5079021;28;45301;-64
2024/01/28 04:39:55;;;;;;;;;34.50;25.25;;;;;4.38;70.40;102340.34;5077932;28;45477;-64
2024/01/28 04:42:23;;;;;;;;;24.25;22.75;;;;;4.35;70.44;102345.38;5079361;28;45372;-64
2024/01/28 04:44:50;;;;;;;;;23.50;19.00;;;;;4.28;70.64;102340.66;5079932;28;45251;-65
2024/01/28 04:47:16;;;;;;;;;25.00;23.00;;;;;4.23;70.46;102328.34;5079254;28;45421;-64
2024/01/28 04:49:42;;;;;;;;;27.25;23.75;;;;;4.25;71.19;102342.28;5078474;28;45911;-63
2024/01/28 04:52:08;;;;;;;;;23.00;22.25;;;;;4.24;70.91;102322.31;5077033;28;45511;-64
2024/01/28 04:54:34;;;;;;;;;28.25;23.50;;;;;4.38;70.55;102346.41;5078157;28;45554;-64
2024/01/28 04:57:01;;;;;;;;;27.00;23.25;;;;;4.41;70.71;102341.41;5077496;28;45843;-63
2024/01/28 04:59:27;;;;;;;;;30.50;23.25;;;;;4.44;70.80;102338.06;5077931;28;45253;-63
2024/01/28 05:01:54;;;;;;;;;24.50;23.00;;;;;4.39;70.45;102329.13;5077742;28;45294;-63
2024/01/28 05:04:20;;;;;;;;;26.00;22.25;;;;;4.32;71.07;102327.03;5078335;28;45426;-64
2024/01/28 05:06:45;;;;;;;;;26.75;23.50;;;;;4.33;71.04;102326.22;5077063;28;46076;-63
2024/01/28 05:09:11;;;;;;;;;33.75;25.50;;;;;4.23;71.60;102317.97;5077752;28;45326;-66
2024/01/28 05:11:36;;;;;;;;;24.00;20.75;;;;;4.28;70.78;102327.69;5077590;28;45432;-65
2024/01/28 05:14:03;;;;;;;;;29.50;21.75;;;;;4.25;71.05;102328.44;5078481;28;45278;-65
2024/01/28 05:16:29;;;;;;;;;19.00;15.00;;;;;4.23;71.44;102328.34;5075630;28;45526;-64
2024/01/28 05:18:56;;;;;;;;;21.25;19.00;;;;;4.34;71.42;102334.09;5077387;28;45403;-65
2024/01/28 05:21:23;;;;;;;;;23.25;18.50;;;;;4.22;70.67;102312.69;5077345;28;45352;-65
2024/01/28 05:23:49;;;;;;;;;23.00;20.75;;;;;4.41;70.87;102346.59;5059084;28;45449;-66
2024/01/28 05:26:14;;;;;;;;;25.75;21.75;;;;;4.44;70.40;102338.06;5076696;28;45564;-65
2024/01/28 05:28:41;;;;;;;;;16.00;15.25;;;;;4.44;70.86;102346.75;5077363;28;45692;-65
2024/01/28 05:31:08;;;;;;;;;20.00;17.00;;;;;4.44;70.42;102336.38;5077412;28;45647;-66
2024/01/28 05:33:37;;;;;;;;;19.50;15.50;;;;;4.46;70.70;102339.94;5078232;28;45380;-67
2024/01/28 05:36:13;;;;;;;;;22.50;19.50;;;;;4.53;70.05;102337.63;5075531;28;46297;-67
2024/01/28 05:38:39;;;;;;;;;19.00;18.00;;;;;4.54;70.44;102339.44;5075374;28;45358;-67
2024/01/28 05:41:06;;;;;;;;;24.75;21.00;;;;;4.51;70.07;102337.59;5059202;28;45497;-65
2024/01/28 05:43:31;;;;;;;;;24.00;22.00;;;;;4.54;70.31;102353.31;5076904;28;45444;-63
2024/01/28 05:45:57;;;;;;;;;26.75;20.75;;;;;4.48;69.71;102327.03;5058997;28;46755;-64
2024/01/28 05:48:23;;;;;;;;;30.25;24.00;;;;;4.53;70.00;102333.38;5077241;28;45418;-66
2024/01/28 05:50:48;;;;;;;;;21.50;20.50;;;;;4.51;69.99;102340.19;5077065;28;45466;-64
2024/01/28 05:53:14;;;;;;;;;21.00;19.00;;;;;4.54;70.53;102342.91;5077272;28;45489;-64
2024/01/28 05:55:40;;;;;;;;;21.50;21.50;;;;;4.46;70.67;102339.00;5076473;28;46138;-64
2024/01/28 05:58:05;;;;;;;;;21.25;17.50;;;;;4.41;70.35;102333.63;5058661;28;45416;-64
2024/01/28 06:00:31;;;;;;;;;24.75;20.75;;;;;4.57;69.72;102349.97;5078292;28;45513;-64
2024/01/28 06:02:57;;;;;;;;;22.00;19.50;;;;;4.46;70.57;102341.63;5078393;28;45436;-64
2024/01/28 06:05:22;;;;;;;;;24.75;23.25;;;;;4.40;70.65;102330.94;5077037;28;45533;-64
2024/01/28 06:07:48;;;;;;;;;21.25;20.00;;;;;4.27;71.36;102333.69;5073308;28;45476;-64
2024/01/28 06:10:13;;;;;;;;;24.25;23.00;;;;;4.14;72.05;102330.44;5077006;28;45236;-65
2024/01/28 06:12:39;;;;;;;;;23.00;19.00;;;;;4.11;72.12;102340.66;5075334;28;45363;-64
2024/01/28 06:15:08;;;;;;;;;24.25;21.25;;;;;4.10;72.09;102341.44;5076739;28;45939;-64
2024/01/28 06:17:36;;;;;;;;;28.25;24.00;;;;;4.12;72.80;102342.41;5075141;28;45382;-64
2024/01/28 06:20:04;;;;;;;;;27.50;21.25;;;;;4.15;73.01;102340.00;5076598;28;45436;-64
2024/01/28 06:22:29;;;;;;;;;27.00;22.50;;;;;4.13;71.60;102332.94;5044146;28;45534;-64
2024/01/28 06:24:55;;;;;;;;;25.25;23.50;;;;;4.07;72.92;102337.81;5076779;28;45285;-66
2024/01/28 06:27:20;;;;;;;;;27.50;24.50;;;;;4.02;72.97;102341.03;5077962;28;45305;-64
2024/01/28 06:29:47;;;;;;;;;21.50;17.50;;;;;3.94;72.71;102318.09;5062878;28;45576;-64
2024/01/28 06:32:13;;;;;;;;;32.50;24.50;;;;;3.83;73.66;102314.91;5076973;28;45401;-67
2024/01/28 06:34:38;;;;;;;;;25.50;22.00;;;;;3.91;72.82;102325.69;5075891;28;46062;-65
2024/01/28 06:37:04;;;;;;;;;25.25;23.25;;;;;3.90;73.10;102317.03;5076205;28;45409;-64
2024/01/28 06:39:30;;;;;;;;;24.25;21.50;;;;;3.69;73.40;102282.19;5077508;28;45365;-64
2024/01/28 06:41:55;;;;;;;;;27.75;25.25;;;;;3.78;73.96;102312.06;5076470;28;45472;-64
2024/01/28 06:44:21;;;;;;;;;22.50;21.25;;;;;3.65;74.62;102295.75;5076047;28;45525;-64
2024/01/28 06:46:47;;;;;;;;;33.00;25.00;;;;;3.61;74.77;102307.69;5058010;28;45393;-64
2024/01/28 06:49:13;;;;;;;;;25.00;23.50;;;;;3.48;75.48;102295.72;5077041;28;45372;-65
2024/01/28 06:51:44;;;;;;;;;34.25;25.25;;;;;3.51;75.03;102292.41;5077762;28;45364;-65
2024/01/28 06:54:10;;;;;;;;;27.25;23.75;;;;;3.42;74.96;102281.53;5076055;28;46248;-64
2024/01/28 06:56:36;;;;;;;;;26.25;24.00;;;;;3.34;75.84;102275.91;5075904;28;45357;-65
2024/01/28 06:59:02;;;;;;;;;34.50;27.00;;;;;3.24;76.01;102274.53;5041092;28;45580;-63
2024/01/28 07:01:27;;;;;;;;;27.00;23.00;;;;;3.27;76.34;102266.91;5058709;28;45376;-66
2024/01/28 07:03:53;;;;;;;;;28.75;23.75;;;;;3.28;76.25;102263.53;5070739;28;46217;-64
2024/01/28 07:06:19;;;;;;;;;27.75;23.00;;;;;3.27;75.99;102259.16;5077415;28;45367;-65
2024/01/28 07:08:44;;;;;;;;;22.00;20.50;;;;;3.26;76.09;102259.97;5049685;28;45393;-66
2024/01/28 07:11:13;;;;;;;;;25.25;23.75;;;;;3.30;75.48;102267.09;5071911;28;45525;-64
2024/01/28 07:13:40;;;;;;;;;28.00;23.75;;;;;3.28;76.16;102254.88;5056886;28;45515;-64
2024/01/28 07:16:06;;;;;;;;;25.25;22.00;;;;;3.33;75.82;102264.69;5057557;28;45603;-65
2024/01/28 07:18:32;;;;;;;;;38.50;27.50;;;;;3.45;75.77;102268.78;5058819;28;45448;-67
2024/01/28 07:20:57;;;;;;;;;29.25;24.25;;;;;3.51;75.95;102261.31;5041087;28;45505;-64
2024/01/28 07:23:23;;;;;;;;;27.00;20.75;;;;;3.52;75.39;102268.31;5058640;28;45362;-72
2024/01/28 07:25:48;;;;;;;;;29.00;24.50;;;;;3.58;74.96;102260.84;5059776;28;45357;-71
2024/01/28 07:28:15;;;;;;;;;28.50;24.75;;;;;3.65;75.43;102264.66;5066025;28;45239;-72
2024/01/28 07:30:41;;;;;;;;;29.50;26.75;;;;;3.64;74.75;102266.38;5072885;28;45405;-68
2024/01/28 07:33:08;;;;;;;;;20.25;17.25;;;;;3.66;75.22;102271.66;5055484;28;45417;-71
2024/01/28 07:35:36;;;;;;;;;23.00;21.75;;;;;3.77;74.51;102276.63;5058633;28;45523;-66
2024/01/28 07:38:03;;;;;;;;;31.75;29.25;;;;;3.75;74.44;102269.53;5054003;28;45322;-67
2024/01/28 07:40:29;;;;;;;;;30.00;25.00;;;;;3.69;75.07;102264.91;5057293;28;45447;-64
2024/01/28 07:43:23;;;;;;;;;24.50;21.50;;;;;3.80;74.86;102286.25;5058626;28;46177;-66
2024/01/28 07:45:52;;;;;;;;;30.00;22.25;;;;;3.82;74.48;102262.19;5057583;28;45357;-64
2024/01/28 07:48:17;;;;;;;;;25.00;23.75;;;;;3.99;73.92;102275.19;5039905;28;45509;-63
2024/01/28 07:50:43;;;;;;;;;30.00;25.75;;;;;4.02;74.38;102271.03;5041049;28;45489;-66
2024/01/28 07:53:09;;;;;;;;;30.75;25.25;;;;;4.14;73.77;102277.69;5058016;28;46159;-70
2024/01/28 07:55:34;;;;;;;;;25.00;21.50;;;;;4.20;73.31;102275.38;5041012;28;45518;-68
2024/01/28 07:58:00;;;;;;;;;34.50;27.75;;;;;4.27;73.02;102281.81;5059822;28;45511;-63
2024/01/28 08:00:27;;;;;;;;;27.75;24.00;;;;;4.30;72.99;102281.97;5058672;28;45522;-66
2024/01/28 08:02:56;;;;;;;;;32.75;26.75;;;;;4.41;72.48;102288.59;5058664;28;45276;-67
2024/01/28 08:05:22;;;;;;;;;23.00;20.25;;;;;4.52;72.06;102287.47;5059079;28;45398;-68
2024/01/28 08:07:47;;;;;;;;;30.00;24.00;;;;;4.55;72.18;102281.53;5076048;28;45449;-67
2024/01/28 08:10:14;;;;;;;;;29.75;25.00;;;;;4.53;72.06;102273.69;5077675;28;45536;-65
2024/01/28 08:12:39;;;;;;;;;29.25;24.75;;;;;4.64;71.60;102290.69;5077510;28;46809;-65
2024/01/28 08:15:05;;;;;;;;;30.75;26.75;;;;;4.60;72.18;102290.44;5079759;28;45753;-67
2024/01/28 08:17:31;;;;;;;;;32.25;26.00;;;;;4.56;71.68;102280.75;5077921;28;45453;-67
2024/01/28 08:19:57;;;;;;;;;30.00;24.00;;;;;4.59;71.63;102279.16;5077024;28;45293;-69
2024/01/28 08:22:26;;;;;;;;;29.50;26.00;;;;;4.64;71.43;102275.09;5079065;28;45250;-70
2024/01/28 08:24:52;;;;;;;;;37.00;30.00;;;;;4.70;71.52;102278.81;5078692;28;45458;-67
2024/01/28 08:27:38;;;;;;;;;30.00;27.25;;;;;4.85;71.53;102277.88;5075199;28;45544;-65
2024/01/28 08:30:09;;;;;;;;;30.25;23.75;;;;;5.18;70.39;102264.78;5052511;28;45646;-67
2024/01/28 08:33:05;;;;;;;;;29.50;26.25;;;;;5.78;68.51;102284.91;5058475;28;45640;-66
2024/01/28 08:35:34;;;;;;;;;31.00;29.00;;;;;6.05;67.95;102248.91;5058236;28;46744;-64
2024/01/28 08:37:59;;;;;;;;;33.00;27.75;;;;;6.68;65.98;102277.69;5043317;28;45502;-68
2024/01/28 08:40:25;;;;;;;;;31.00;27.00;;;;;6.68;64.06;102236.03;5059993;28;45510;-66
2024/01/28 08:42:51;;;;;;;;;29.50;29.00;;;;;7.18;64.43;102276.28;5059276;28;45395;-66
2024/01/28 08:45:17;;;;;;;;;34.75;27.25;;;;;7.46;62.59;102267.84;5038841;28;45702;-64
2024/01/28 08:48:01;;;;;;;;;33.75;26.75;;;;;7.61;62.60;102273.63;5057846;28;45389;-64
2024/01/28 08:50:49;;;;;;;;;29.25;23.75;;;;;7.62;62.04;102251.97;5036574;28;45320;-66
2024/01/28 08:53:31;;;;;;;;;33.00;29.25;;;;;7.66;60.75;102237.31;5041690;28;46616;-71
2024/01/28 08:56:33;;;;;;;;;34.50;30.00;;;;;7.84;60.84;102274.53;5060626;28;45459;-68
2024/01/28 08:59:09;;;;;;;;;29.75;27.00;;;;;7.92;60.75;102273.94;5055464;28;45329;-65
2024/01/28 09:01:38;;;;;;;;;29.75;26.50;;;;;7.84;60.80;102251.06;5041777;28;45478;-65
2024/01/28 09:04:05;;;;;;;;;29.75;24.75;;;;;8.02;60.48;102266.53;5037312;28;47990;-69
2024/01/28 09:06:31;;;;;;;;;31.50;27.25;;;;;8.33;59.67;102278.06;5062347;28;45295;-63
2024/01/28 09:08:56;;;;;;;;;35.25;27.00;;;;;8.41;59.22;102270.53;5077360;28;45434;-70
2024/01/28 09:11:22;;;;;;;;;33.75;27.50;;;;;8.66;58.42;102265.34;5077820;28;45650;-65
2024/01/28 09:13:48;;;;;;;;;31.50;28.00;;;;;8.58;57.65;102251.13;5077164;28;45544;-67
2024/01/28 09:16:13;;;;;;;;;31.75;28.00;;;;;8.64;57.92;102247.84;5075554;28;45402;-63
2024/01/28 09:18:42;;;;;;;;;32.50;25.75;;;;;8.69;57.41;102256.72;5077763;28;45532;-69
2024/01/28 09:21:09;;;;;;;;;31.50;26.75;;;;;8.62;57.66;102270.41;5077265;28;45278;-70
2024/01/28 09:23:34;;;;;;;;;35.25;30.25;;;;;8.61;57.88;102268.59;5077579;28;45397;-71
2024/01/28 09:26:00;;;;;;;;;28.50;25.25;;;;;8.58;57.27;102238.06;5072081;28;45989;-67
2024/01/28 09:28:26;;;;;;;;;30.50;26.00;;;;;8.80;57.78;102249.22;5068191;28;45416;-65
2024/01/28 09:30:51;;;;;;;;;23.75;23.75;;;;;9.09;57.08;102243.25;5077314;28;45489;-65
2024/01/28 09:33:17;;;;;;;;;30.25;25.75;;;;;9.54;55.96;102240.28;5075826;28;47622;-65
2024/01/28 09:35:44;;;;;;;;;27.75;24.25;;;;;9.44;54.63;102239.94;5075429;28;45358;-69
2024/01/28 09:38:09;;;;;;;;;34.50;29.00;;;;;9.19;55.66;102217.41;5055508;28;45355;-68
2024/01/28 09:40:35;;;;;;;;;34.25;28.50;;;;;9.08;55.94;102237.97;5067726;28;45354;-68
2024/01/28 09:43:21;;;;;;;;;30.50;27.50;;;;;9.02;56.34;102237.78;5036925;28;47712;-65
2024/01/28 09:45:48;;;;;;;;;32.75;27.75;;;;;8.86;56.74;102247.72;5055885;28;45551;-64
2024/01/28 09:48:15;;;;;;;;;34.25;29.75;;;;;8.76;56.70;102239.53;5065514;28;45952;-61
2024/01/28 09:50:41;;;;;;;;;33.00;28.50;;;;;8.65;56.88;102242.66;5058757;28;45322;-66
2024/01/28 09:53:07;;;;;;;;;34.50;28.25;;;;;8.28;57.60;102230.91;5057822;28;46074;-63
2024/01/28 09:55:33;;;;;;;;;30.25;25.00;;;;;8.11;58.55;102242.47;5059978;28;45474;-64
2024/01/28 09:57:59;;;;;;;;;29.50;22.75;;;;;8.01;59.37;102243.84;5071868;28;45761;-67
2024/01/28 10:00:25;;;;;;;;;35.00;29.75;;;;;8.07;58.82;102233.66;5060674;28;45378;-64
2024/01/28 10:02:51;;;;;;;;;28.00;26.00;;;;;8.40;58.63;102233.09;5067683;28;45594;-68
2024/01/28 10:05:16;;;;;;;;;31.25;28.00;;;;;8.86;57.62;102246.84;5065192;28;45471;-62
2024/01/28 10:07:47;;;;;;;;;1.00;1.00;;;;;9.25;56.53;102252.44;5078206;28;45415;-64
2024/01/28 10:10:16;;;;;;;;;39.25;31.75;;;;;9.49;56.01;102243.59;5070560;28;45492;-66
2024/01/28 10:12:41;;;;;;;;;39.00;28.75;;;;;9.77;54.86;102242.69;5068687;28;46210;-67
2024/01/28 10:15:17;;;;;;;;;34.75;30.25;;;;;10.22;54.15;102244.84;5077307;28;45450;-66
2024/01/28 10:17:48;;;;;;;;;31.75;30.00;;;;;10.57;52.85;102232.72;5062562;28;45351;-62
2024/01/28 10:20:18;;;;;;;;;29.25;28.00;;;;;10.89;52.02;102244.88;5064942;28;45501;-63
2024/01/28 10:22:44;;;;;;;;;35.50;29.00;;;;;11.32;51.38;102244.19;5059942;28;45457;-64
2024/01/28 10:25:15;;;;;;;;;34.50;30.50;;;;;11.90;50.58;102247.22;5058266;28;45468;-68
2024/01/28 10:27:44;;;;;;;;;37.50;30.00;;;;;11.97;49.28;102248.22;5040155;28;45544;-64
2024/01/28 10:30:11;;;;;;;;;32.25;26.25;;;;;12.04;49.10;102245.75;5071132;28;45531;-64
2024/01/28 10:32:38;;;;;;;;;32.75;29.00;;;;;12.38;48.73;102241.13;5058092;28;46280;-66
2024/01/28 10:35:08;;;;;;;;;35.75;27.00;;;;;12.48;48.42;102232.59;5057950;28;45440;-63
2024/01/28 10:37:34;;;;;;;;;33.25;27.25;;;;;12.32;48.80;102243.66;5067497;28;45355;-68
2024/01/28 10:40:07;;;;;;;;;32.00;25.00;;;;;12.13;48.77;102250.31;5076511;28;45369;-64
2024/01/28 10:42:42;;;;;;;;;29.75;24.00;;;;;11.99;49.09;102238.66;5076149;28;45481;-64
2024/01/28 10:45:10;;;;;;;;;29.75;25.75;;;;;12.31;48.78;102249.75;5075755;28;45547;-64
2024/01/28 10:47:36;;;;;;;;;22.75;19.00;;;;;11.92;49.04;102240.25;5067219;28;45341;-69
2024/01/28 10:50:11;;;;;;;;;39.00;28.75;;;;;11.73;49.69;102248.56;5072457;28;45271;-68
2024/01/28 10:52:38;;;;;;;;;30.75;24.50;;;;;11.68;49.44;102243.22;5080284;28;45428;-67
2024/01/28 10:55:04;;;;;;;;;27.75;24.25;;;;;11.35;50.10;102212.75;5079427;28;45413;-63
2024/01/28 10:57:33;;;;;;;;;28.75;23.00;;;;;11.43;51.16;102228.66;5079818;28;45491;-64
2024/01/28 11:00:00;;;;;;;;;31.25;26.00;;;;;11.53;50.55;102230.66;5067757;28;45405;-67
2024/01/28 11:02:27;;;;;;;;;33.75;25.50;;;;;11.47;50.31;102206.91;5069660;28;46637;-67
2024/01/28 11:04:55;;;;;;;;;29.50;24.75;;;;;11.71;50.54;102222.28;5046656;28;45857;-67
2024/01/28 11:07:22;;;;;;;;;30.00;25.25;;;;;11.80;49.93;102197.97;5076771;28;45871;-69
2024/01/28 11:09:48;;;;;;;;;22.75;18.00;;;;;11.78;50.05;102212.78;5068465;28;45593;-69
2024/01/28 11:12:15;;;;;;;;;28.50;23.75;;;;;11.99;50.93;102207.13;5075586;28;45388;-65
2024/01/28 11:14:40;;;;;;;;;31.25;25.00;;;;;12.31;49.47;102197.22;5055570;28;45482;-70
2024/01/28 11:17:10;;;;;;;;;34.25;26.75;;;;;11.91;49.66;102182.44;5066043;28;45382;-70